Time;durP1;ratioP1;P1;durP2;ratioP2;P2;SDS_P1;SDS_P2;PMS_P1;PMS_P2;Temp;Humidity;BMP_temperature;BMP_pressure;BME280_temperature;BME280_humidity;BME280_pressure;Samples;Min_cycle;Max_cycle;Signal;HPM_P1;HPM_P2
2021/07/18 00:02:11;;;;;;;5.18;3.85;;;;;;;18.17;79.34;92952.16;2065070;69;20149;-78
2021/07/18 00:04:37;;;;;;;6.88;4.22;;;;;;;18.13;80.66;92952.03;2051986;70;20636;-78
2021/07/18 00:07:06;;;;;;;7.57;4.28;;;;;;;18.17;77.56;92952.16;2052194;70;20268;-78
2021/07/18 00:09:31;;;;;;;5.22;3.65;;;;;;;18.19;77.90;92951.50;2052012;70;20150;-77
2021/07/18 00:11:57;;;;;;;6.43;4.35;;;;;;;17.94;80.76;92950.63;2052203;70;20154;-77
2021/07/18 00:14:23;;;;;;;7.60;5.68;;;;;;;17.39;84.88;92956.28;2065014;69;20225;-78
2021/07/18 00:16:48;;;;;;;8.93;5.30;;;;;;;17.78;82.50;92964.25;2051917;70;20180;-77
2021/07/18 00:19:14;;;;;;;9.10;5.13;;;;;;;17.95;81.94;92948.50;2052193;70;20147;-77
2021/07/18 00:21:40;;;;;;;6.78;4.80;;;;;;;18.03;80.47;92957.34;2052017;69;20137;-76
2021/07/18 00:24:05;;;;;;;8.07;5.55;;;;;;;18.05;78.46;92957.41;2052002;70;20150;-77
2021/07/18 00:26:31;;;;;;;11.38;5.13;;;;;;;18.10;80.29;92955.44;2051901;70;20130;-77
2021/07/18 00:28:57;;;;;;;7.00;4.90;;;;;;;18.01;80.76;92951.59;2052315;70;20208;-77
2021/07/18 00:31:22;;;;;;;10.80;5.70;;;;;;;17.97;80.42;92937.19;2051603;69;20142;-77
2021/07/18 00:33:48;;;;;;;9.05;5.32;;;;;;;18.06;81.13;92943.94;2051913;70;20189;-77
2021/07/18 00:36:13;;;;;;;8.20;5.68;;;;;;;18.08;80.77;92936.16;2051966;70;20158;-76
2021/07/18 00:38:39;;;;;;;6.65;4.82;;;;;;;18.08;78.00;92936.16;2052103;70;20541;-77
2021/07/18 00:41:05;;;;;;;6.05;4.75;;;;;;;18.04;77.93;92927.47;2065040;69;20225;-78
2021/07/18 00:43:30;;;;;;;6.65;4.10;;;;;;;18.03;77.20;92923.91;2052050;70;20619;-77
2021/07/18 00:45:57;;;;;;;8.02;5.88;;;;;;;17.69;80.87;92925.44;2062204;69;20149;-77
2021/07/18 00:48:26;;;;;;;9.35;5.90;;;;;;;17.93;81.64;92928.50;2051696;70;20154;-77
2021/07/18 00:50:52;;;;;;;8.18;4.95;;;;;;;17.92;80.76;92919.22;2051950;69;20576;-77
2021/07/18 00:53:17;;;;;;;6.65;4.70;;;;;;;18.00;77.52;92918.78;2052014;70;20138;-77
2021/07/18 00:55:44;;;;;;;6.88;4.50;;;;;;;18.04;79.73;92916.81;2052049;70;20217;-76
2021/07/18 00:58:11;;;;;;;8.95;4.80;;;;;;;17.95;81.44;92920.00;2051918;70;20158;-77
2021/07/18 01:00:36;;;;;;;9.43;4.30;;;;;;;17.98;81.55;92910.88;2051585;70;20147;-78
2021/07/18 01:03:03;;;;;;;6.70;3.90;;;;;;;17.86;82.20;92913.28;2051445;70;20189;-78
2021/07/18 01:05:29;;;;;;;4.60;3.63;;;;;;;17.95;81.34;92911.47;2051317;70;20150;-77
2021/07/18 01:07:55;;;;;;;8.07;3.78;;;;;;;17.96;80.65;92915.78;2051674;70;20712;-78
2021/07/18 01:10:21;;;;;;;7.55;4.47;;;;;;;18.00;78.01;92910.22;2051066;70;20525;-77
2021/07/18 01:12:46;;;;;;;7.75;5.07;;;;;;;18.09;79.21;92908.41;2051529;70;20146;-77
2021/07/18 01:15:13;;;;;;;8.93;4.88;;;;;;;18.07;77.59;92899.81;2051568;69;20273;-78
2021/07/18 01:17:39;;;;;;;8.13;4.68;;;;;;;18.08;79.17;92893.44;2052013;70;20147;-77
2021/07/18 01:20:08;;;;;;;7.85;4.80;;;;;;;17.93;79.51;92891.47;2052076;70;20154;-77
2021/07/18 01:22:34;;;;;;;7.40;5.45;;;;;;;17.45;85.16;92894.63;2052079;70;20312;-77
2021/07/18 01:25:01;;;;;;;7.45;5.10;;;;;;;17.88;81.35;92895.56;2052072;70;20506;-77
2021/07/18 01:27:27;;;;;;;9.90;4.57;;;;;;;18.01;79.34;92900.31;2051972;70;20154;-77
2021/07/18 01:29:52;;;;;;;10.80;5.38;;;;;;;18.02;81.15;92891.09;2051596;70;20164;-77
2021/07/18 01:32:19;;;;;;;10.45;4.82;;;;;;;17.94;81.03;92907.16;2051869;69;20243;-77
2021/07/18 01:34:45;;;;;;;7.85;4.63;;;;;;;18.01;81.48;92906.75;2051774;70;20186;-77
2021/07/18 01:37:12;;;;;;;7.00;4.18;;;;;;;17.99;80.53;92905.94;2051809;70;20237;-77
2021/07/18 01:39:38;;;;;;;6.05;4.28;;;;;;;17.78;82.61;92908.03;2051966;69;20593;-77
2021/07/18 01:42:05;;;;;;;9.07;4.45;;;;;;;17.77;82.35;92906.56;2051585;69;20235;-77
2021/07/18 01:44:31;;;;;;;5.93;4.28;;;;;;;17.90;78.64;92904.91;2051314;70;20201;-77
2021/07/18 01:46:58;;;;;;;6.32;4.10;;;;;;;17.94;80.28;92915.72;2051734;70;20583;-77
2021/07/18 01:49:23;;;;;;;4.65;3.35;;;;;;;18.06;77.45;92907.63;2051842;70;20260;-77
2021/07/18 01:51:49;;;;;;;4.88;3.10;;;;;;;18.07;77.17;92911.94;2052179;70;20153;-77
2021/07/18 01:54:16;;;;;;;6.90;3.22;;;;;;;18.13;78.46;92908.56;2051928;70;20200;-77
2021/07/18 01:56:42;;;;;;;5.68;3.30;;;;;;;18.04;77.76;92908.25;2064908;69;20150;-76
2021/07/18 01:59:08;;;;;;;7.13;4.63;;;;;;;17.34;84.95;92898.50;2052104;70;20161;-78
2021/07/18 02:01:34;;;;;;;8.00;3.78;;;;;;;17.73;83.29;92908.50;2051757;70;20182;-77
2021/07/18 02:04:02;;;;;;;6.80;4.00;;;;;;;17.83;82.59;92916.72;2051956;70;20605;-77
2021/07/18 02:06:29;;;;;;;5.20;3.53;;;;;;;17.95;80.83;92906.50;2052095;69;20155;-77
2021/07/18 02:08:56;;;;;;;5.43;3.85;;;;;;;17.94;79.38;92899.34;2051962;70;20170;-77
2021/07/18 02:11:22;;;;;;;6.90;3.35;;;;;;;17.95;78.11;92902.94;2052003;70;20146;-77
2021/07/18 02:13:51;;;;;;;3.30;3.00;;;;;;;18.01;77.00;92898.19;2052109;70;20150;-77
2021/07/18 02:16:17;;;;;;;4.60;3.00;;;;;;;18.04;80.93;92896.13;2051864;70;20150;-77
2021/07/18 02:18:44;;;;;;;3.83;3.00;;;;;;;18.01;81.11;92903.16;2051948;69;20610;-78
2021/07/18 02:21:10;;;;;;;5.88;2.83;;;;;;;17.83;79.86;92893.94;2051953;70;20150;-77
2021/07/18 02:23:36;;;;;;;4.70;3.30;;;;;;;17.83;80.95;92896.78;2051638;70;20610;-77
2021/07/18 02:26:02;;;;;;;6.70;3.00;;;;;;;17.93;80.85;92903.59;2051691;70;20234;-79
2021/07/18 02:28:28;;;;;;;4.90;2.90;;;;;;;17.96;79.74;92910.06;2051801;70;20153;-77
2021/07/18 02:30:53;;;;;;;5.65;3.83;;;;;;;18.04;80.30;92896.88;2051492;70;20174;-77
2021/07/18 02:33:20;;;;;;;5.53;3.65;;;;;;;18.02;80.51;92898.91;2051698;70;20204;-77
2021/07/18 02:35:45;;;;;;;4.68;3.42;;;;;;;17.99;81.24;92889.56;2052016;70;20146;-78
2021/07/18 02:38:11;;;;;;;5.88;2.60;;;;;;;17.94;79.53;92899.34;2052152;69;20145;-78
2021/07/18 02:40:37;;;;;;;4.28;2.40;;;;;;;17.96;80.41;92893.75;2051986;70;20168;-78
2021/07/18 02:43:03;;;;;;;3.58;2.58;;;;;;;17.96;80.55;92884.44;2052237;70;20570;-78
2021/07/18 02:45:30;;;;;;;3.40;2.40;;;;;;;18.04;78.85;92888.31;2051995;70;20157;-78
2021/07/18 02:47:56;;;;;;;6.45;2.50;;;;;;;17.98;80.45;92884.53;2051909;70;20199;-78
2021/07/18 02:50:26;;;;;;;5.55;2.90;;;;;;;17.95;76.87;92875.16;2064907;69;20146;-78
2021/07/18 02:52:52;;;;;;;6.85;3.05;;;;;;;17.59;82.44;92890.88;2051929;70;20229;-78
2021/07/18 02:55:18;;;;;;;7.07;3.40;;;;;;;17.53;83.54;92877.16;2052381;70;20233;-78
2021/07/18 02:57:44;;;;;;;6.07;3.42;;;;;;;17.82;82.39;92883.94;2052467;70;20166;-79
2021/07/18 03:00:13;;;;;;;4.45;3.55;;;;;;;17.82;80.02;92889.63;2052360;70;20233;-78
2021/07/18 03:02:40;;;;;;;5.63;3.58;;;;;;;17.93;81.45;92889.34;2052291;70;20142;-78
2021/07/18 03:05:07;;;;;;;4.20;3.80;;;;;;;17.94;80.01;92892.94;2052402;70;20143;-78
2021/07/18 03:07:33;;;;;;;4.35;3.47;;;;;;;17.97;79.00;92886.66;2052380;70;20139;-78
2021/07/18 03:09:59;;;;;;;3.80;3.25;;;;;;;18.02;80.38;92884.69;2065416;69;20155;-78
2021/07/18 03:12:25;;;;;;;4.38;3.90;;;;;;;17.94;82.45;92879.41;2052395;70;20573;-79
2021/07/18 03:14:50;;;;;;;5.05;3.38;;;;;;;17.96;80.19;92881.59;2052635;70;20150;-78
2021/07/18 03:17:16;;;;;;;5.75;2.72;;;;;;;17.98;78.88;92882.41;2052380;70;20549;-78
2021/07/18 03:19:42;;;;;;;4.80;2.60;;;;;;;18.01;80.04;92871.84;2052353;69;20138;-79
2021/07/18 03:22:07;;;;;;;6.50;2.53;;;;;;;17.87;81.26;92863.50;2052330;70;20143;-79
2021/07/18 03:24:33;;;;;;;4.55;2.70;;;;;;;17.98;80.02;92876.72;2052405;69;20542;-78
2021/07/18 03:26:59;;;;;;;6.43;3.50;;;;;;;17.89;79.49;92862.84;2052414;70;20150;-79
2021/07/18 03:29:26;;;;;;;6.80;4.43;;;;;;;17.67;81.78;92863.44;2052405;70;20540;-78
2021/07/18 03:31:52;;;;;;;6.22;3.70;;;;;;;17.83;81.48;92863.34;2052406;70;20170;-78
2021/07/18 03:34:18;;;;;;;5.68;3.75;;;;;;;17.93;80.15;92866.56;2065551;69;20178;-78
2021/07/18 03:36:44;;;;;;;6.93;4.10;;;;;;;17.97;80.91;92866.00;2065480;69;20605;-78
2021/07/18 03:39:09;;;;;;;6.22;4.47;;;;;;;17.83;77.81;92876.88;2052414;70;20162;-78
2021/07/18 03:41:37;;;;;;;6.35;4.63;;;;;;;17.96;80.17;92864.50;2052453;70;20157;-78
2021/07/18 03:44:02;;;;;;;5.97;4.20;;;;;;;17.98;79.73;92871.03;2065414;69;20181;-79
2021/07/18 03:46:28;;;;;;;4.72;3.58;;;;;;;17.94;80.75;92875.84;2052423;70;20143;-79
2021/07/18 03:48:53;;;;;;;4.43;3.58;;;;;;;17.81;82.22;92876.78;2065402;69;20629;-78
2021/07/18 03:51:19;;;;;;;5.75;3.28;;;;;;;17.90;79.56;92873.56;2065420;69;20225;-78
2021/07/18 03:53:45;;;;;;;6.22;3.38;;;;;;;17.98;79.46;92864.59;2065305;69;20144;-78
2021/07/18 03:56:11;;;;;;;4.82;2.80;;;;;;;17.96;78.66;92864.50;2068576;69;20172;-78
2021/07/18 03:58:37;;;;;;;6.68;2.92;;;;;;;17.91;77.14;92871.44;2068582;69;20137;-78
2021/07/18 04:01:09;;;;;;;3.92;2.90;;;;;;;17.85;81.58;92857.72;2068006;69;20236;-79
2021/07/18 04:03:36;;;;;;;;;;;;;;;17.94;79.25;92865.16;2068749;69;20198;-78
2021/07/18 04:06:05;;;;;;;5.10;2.80;;;;;;;18.01;78.00;92880.38;2068423;69;20110;-78
2021/07/18 04:08:32;;;;;;;5.30;2.60;;;;;;;17.94;78.39;92878.69;2068550;69;20202;-79
2021/07/18 04:10:57;;;;;;;9.30;3.10;;;;;;;17.97;80.79;92872.41;2068027;69;20222;-78
2021/07/18 04:13:23;;;;;;;5.97;3.40;;;;;;;17.68;83.68;92879.13;2068601;69;20168;-79
2021/07/18 04:15:49;;;;;;;6.45;3.10;;;;;;;17.81;78.93;92883.19;2068538;69;20590;-79
2021/07/18 04:18:14;;;;;;;5.47;3.58;;;;;;;17.91;80.52;92877.13;2068439;69;20157;-79
2021/07/18 04:20:40;;;;;;;5.30;3.35;;;;;;;17.99;80.43;92881.00;2068480;69;20604;-79
2021/07/18 04:23:08;;;;;;;5.60;3.58;;;;;;;17.88;80.78;92887.75;2068489;69;20259;-78
2021/07/18 04:25:34;;;;;;;6.60;3.80;;;;;;;17.79;80.85;92891.69;2068537;69;20175;-78
2021/07/18 04:27:59;;;;;;;5.80;3.80;;;;;;;17.84;82.58;92892.56;2068518;69;20247;-78
2021/07/18 04:30:25;;;;;;;4.95;3.30;;;;;;;17.89;80.62;92894.91;2068535;69;20176;-78
2021/07/18 04:32:51;;;;;;;5.22;3.78;;;;;;;17.85;80.15;92896.88;2068470;69;20188;-78
2021/07/18 04:35:17;;;;;;;4.72;3.40;;;;;;;17.89;81.59;92905.56;2068041;69;20137;-79
2021/07/18 04:37:43;;;;;;;5.90;3.72;;;;;;;17.93;78.69;92917.09;2068539;69;20502;-78
2021/07/18 04:40:11;;;;;;;6.72;3.63;;;;;;;17.97;78.58;92909.44;2068577;69;20213;-79
2021/07/18 04:42:38;;;;;;;8.48;3.85;;;;;;;18.03;80.38;92901.09;2068482;69;20141;-79
2021/07/18 04:45:04;;;;;;;5.22;3.45;;;;;;;18.02;81.78;92893.94;2068556;69;20136;-78
2021/07/18 04:47:30;;;;;;;5.35;3.47;;;;;;;18.07;79.62;92894.09;2068477;69;20149;-79
2021/07/18 04:49:55;;;;;;;4.60;3.60;;;;;;;18.01;81.38;92895.34;2068488;69;20156;-79
2021/07/18 04:52:21;;;;;;;8.52;3.67;;;;;;;17.92;81.62;92907.84;2065218;69;20507;-79
2021/07/18 04:54:46;;;;;;;6.10;3.60;;;;;;;17.71;82.54;92909.16;2052259;70;20119;-79
2021/07/18 04:57:12;;;;;;;5.57;3.42;;;;;;;17.91;79.31;92914.88;2052392;70;20506;-78
2021/07/18 04:59:38;;;;;;;4.95;3.20;;;;;;;17.98;80.65;92921.56;2065135;69;20147;-78
2021/07/18 05:02:04;;;;;;;5.10;3.40;;;;;;;17.97;80.92;92917.25;2052120;70;20169;-79
2021/07/18 05:04:29;;;;;;;5.00;3.30;;;;;;;17.95;79.70;92915.03;2052218;69;20176;-78
2021/07/18 05:06:55;;;;;;;5.00;2.92;;;;;;;17.97;78.47;92906.59;2052459;70;20141;-79
2021/07/18 05:09:21;;;;;;;4.57;2.70;;;;;;;17.98;77.47;92913.75;2052328;70;20169;-79
2021/07/18 05:11:46;;;;;;;4.03;3.22;;;;;;;17.99;79.38;92914.47;2052222;70;20150;-79
2021/07/18 05:14:12;;;;;;;4.20;2.95;;;;;;;18.05;79.24;92911.84;2065231;69;20138;-79
2021/07/18 05:16:37;;;;;;;4.03;3.38;;;;;;;17.85;82.84;92903.28;2052072;70;20246;-79
2021/07/18 05:19:03;;;;;;;4.18;3.58;;;;;;;17.78;84.15;92910.16;2052223;69;20204;-80
2021/07/18 05:21:29;;;;;;;5.75;3.70;;;;;;;17.97;81.23;92903.75;2052176;70;20225;-79
2021/07/18 05:23:55;;;;;;;5.20;3.53;;;;;;;18.08;81.32;92906.94;2052222;70;20624;-79
2021/07/18 05:26:21;;;;;;;4.78;3.60;;;;;;;17.96;81.08;92904.38;2052140;69;20602;-79
2021/07/18 05:28:47;;;;;;;6.03;3.53;;;;;;;18.03;80.26;92912.50;2052171;69;20137;-79
2021/07/18 05:31:13;;;;;;;5.20;3.47;;;;;;;18.16;80.36;92904.41;2052056;70;20238;-79
2021/07/18 05:33:39;;;;;;;4.80;3.50;;;;;;;18.00;79.60;92910.97;2052155;70;20142;-79
2021/07/18 05:36:05;;;;;;;5.97;3.92;;;;;;;17.56;85.90;92912.13;2052314;70;20146;-80
2021/07/18 05:38:30;;;;;;;4.40;3.47;;;;;;;17.89;82.15;92908.41;2052201;70;20249;-80
2021/07/18 05:40:56;;;;;;;4.30;3.90;;;;;;;18.06;82.07;92910.47;2052160;70;20154;-80
2021/07/18 05:43:21;;;;;;;7.20;3.45;;;;;;;18.12;82.71;92913.53;2052172;69;20138;-80
2021/07/18 05:45:47;;;;;;;4.07;3.28;;;;;;;18.10;81.07;92904.91;2052201;70;20203;-80
2021/07/18 05:48:13;;;;;;;4.57;3.85;;;;;;;18.12;80.24;92901.41;2052036;70;20185;-79
2021/07/18 05:50:39;;;;;;;5.07;3.50;;;;;;;18.13;79.82;92900.75;2052150;70;20154;-80
2021/07/18 05:53:04;;;;;;;5.85;3.70;;;;;;;18.15;80.37;92905.78;2052137;70;20173;-80
2021/07/18 05:55:30;;;;;;;4.43;3.47;;;;;;;18.09;82.10;92920.53;2052131;69;20611;-80
2021/07/18 05:57:55;;;;;;;5.45;3.83;;;;;;;18.12;80.45;92922.06;2052122;69;20141;-80
2021/07/18 06:00:21;;;;;;;7.72;3.67;;;;;;;18.21;79.49;92906.72;2052110;70;20241;-80
2021/07/18 06:02:47;;;;;;;8.35;4.20;;;;;;;18.17;81.26;92906.59;2052055;70;20147;-80
2021/07/18 06:05:12;;;;;;;5.30;3.75;;;;;;;18.23;79.21;92914.63;2052111;69;20191;-80
2021/07/18 06:07:39;;;;;;;6.82;4.47;;;;;;;17.92;79.35;92904.25;2052204;70;20208;-80
2021/07/18 06:10:06;;;;;;;7.28;4.65;;;;;;;18.17;79.91;92900.88;2052169;70;20173;-80
2021/07/18 06:12:32;;;;;;;5.28;4.30;;;;;;;18.28;80.97;92899.16;2052107;70;20529;-80
2021/07/18 06:14:59;;;;;;;8.55;4.55;;;;;;;18.35;77.67;92906.50;2052085;70;20157;-80
2021/07/18 06:17:25;;;;;;;5.05;4.55;;;;;;;18.34;81.78;92899.34;2051962;69;20522;-80
2021/07/18 06:19:50;;;;;;;10.00;5.07;;;;;;;18.28;79.59;92910.53;2052111;70;20215;-80
2021/07/18 06:22:16;;;;;;;6.93;4.72;;;;;;;18.28;81.57;92916.97;2052100;70;20190;-80
2021/07/18 06:24:42;;;;;;;6.43;4.47;;;;;;;18.40;80.00;92918.78;2052057;70;20151;-80
2021/07/18 06:27:07;;;;;;;4.93;4.20;;;;;;;18.46;79.79;92908.34;2052063;70;20181;-80
2021/07/18 06:29:34;;;;;;;5.82;4.38;;;;;;;18.51;80.78;92912.06;2052303;70;20145;-80
2021/07/18 06:31:59;;;;;;;5.05;4.03;;;;;;;18.59;79.72;92912.31;2052471;70;20146;-80
2021/07/18 06:34:26;;;;;;;4.78;3.90;;;;;;;18.49;74.94;92907.00;2052537;70;20249;-80
2021/07/18 06:36:52;;;;;;;4.38;3.70;;;;;;;18.43;76.25;92915.34;2052555;70;20599;-80
2021/07/18 06:39:19;;;;;;;6.15;4.00;;;;;;;18.56;79.30;92915.78;2052475;70;20610;-80
2021/07/18 06:41:45;;;;;;;7.50;3.58;;;;;;;18.57;75.40;92911.53;2052521;70;20134;-80
2021/07/18 06:44:11;;;;;;;7.57;5.75;;;;;;;18.33;83.20;92926.41;2052510;70;20602;-80
2021/07/18 06:46:38;;;;;;;7.38;5.40;;;;;;;18.36;83.50;92927.91;2052411;69;20210;-80
2021/07/18 06:49:04;;;;;;;7.60;5.53;;;;;;;18.52;81.20;92925.66;2065451;69;20666;-80
2021/07/18 06:51:30;;;;;;;6.78;5.05;;;;;;;18.59;81.31;92931.56;2052454;69;20134;-80
2021/07/18 06:53:55;;;;;;;8.27;5.32;;;;;;;18.65;81.60;92926.81;2052548;69;20173;-80
2021/07/18 06:56:21;;;;;;;9.07;5.28;;;;;;;18.64;76.26;92941.69;2052456;70;20185;-80
2021/07/18 06:58:47;;;;;;;7.20;4.80;;;;;;;18.54;74.29;92933.53;2052571;70;20142;-80
2021/07/18 07:01:12;;;;;;;5.80;4.65;;;;;;;18.55;79.11;92937.84;2052299;70;20591;-80
2021/07/18 07:03:38;;;;;;;5.03;3.95;;;;;;;18.73;79.03;92943.47;2052505;70;20166;-80
2021/07/18 07:06:04;;;;;;;5.28;4.35;;;;;;;18.79;78.59;92941.56;2052441;69;20146;-80
2021/07/18 07:08:30;;;;;;;6.70;4.38;;;;;;;18.85;79.99;92938.19;2052531;70;20196;-78
2021/07/18 07:10:56;;;;;;;6.22;4.60;;;;;;;18.83;79.70;92937.38;2052462;70;20139;-79
2021/07/18 07:13:21;;;;;;;7.65;5.55;;;;;;;18.84;79.54;92936.00;2052569;70;20146;-78
2021/07/18 07:15:47;;;;;;;9.95;6.60;;;;;;;18.80;81.63;92939.44;2052493;70;20154;-79
2021/07/18 07:18:13;;;;;;;10.45;7.22;;;;;;;18.47;80.60;92938.31;2052334;69;20761;-80
2021/07/18 07:20:39;;;;;;;8.95;6.90;;;;;;;18.53;81.62;92938.50;2052410;70;20165;-78
2021/07/18 07:23:04;;;;;;;8.98;7.30;;;;;;;18.77;80.23;92932.94;2052584;70;20174;-79
2021/07/18 07:25:30;;;;;;;9.70;6.25;;;;;;;18.86;77.30;92936.06;2052508;70;20606;-79
2021/07/18 07:27:59;;;;;;;8.27;6.25;;;;;;;18.93;78.92;92934.91;2052461;70;20494;-80
2021/07/18 07:30:24;;;;;;;9.00;6.28;;;;;;;19.03;78.30;92938.06;2052473;70;20150;-79
2021/07/18 07:32:50;;;;;;;7.47;5.45;;;;;;;19.09;79.13;92934.69;2052324;70;20221;-79
2021/07/18 07:35:16;;;;;;;7.00;4.68;;;;;;;19.20;78.59;92939.34;2052450;70;20170;-80
2021/07/18 07:37:43;;;;;;;7.00;4.40;;;;;;;19.15;81.18;92941.34;2052352;70;20142;-79
2021/07/18 07:40:14;;;;;;;8.10;6.40;;;;;;;19.20;79.13;92937.22;2052139;70;20207;-79
2021/07/18 07:42:40;;;;;;;14.18;9.02;;;;;;;19.27;79.25;92935.28;2052311;70;20239;-79
2021/07/18 07:45:09;;;;;;;10.30;7.65;;;;;;;19.28;76.58;92934.59;2052350;69;20169;-79
2021/07/18 07:47:35;;;;;;;12.07;8.95;;;;;;;19.25;76.04;92935.22;2052257;70;20553;-79
2021/07/18 07:50:01;;;;;;;11.88;8.52;;;;;;;18.92;80.30;92942.72;2052482;69;20189;-78
2021/07/18 07:52:27;;;;;;;11.00;8.07;;;;;;;19.12;79.38;92944.78;2052231;70;20497;-78
2021/07/18 07:54:53;;;;;;;6.32;5.10;;;;;;;19.09;74.78;92946.09;2052536;70;20150;-78
2021/07/18 07:57:18;;;;;;;6.72;5.00;;;;;;;19.19;76.78;92952.13;2052370;70;20150;-77
2021/07/18 07:59:44;;;;;;;8.65;5.50;;;;;;;19.22;78.33;92950.81;2052345;70;20626;-80
2021/07/18 08:02:10;;;;;;;7.85;5.82;;;;;;;19.16;81.46;92954.22;2052290;70;20314;-78
2021/07/18 08:04:36;;;;;;;8.05;5.80;;;;;;;19.13;79.47;92946.25;2052363;70;20181;-79
2021/07/18 08:07:01;;;;;;;8.18;5.57;;;;;;;18.82;84.10;92955.88;2052533;70;20158;-79
2021/07/18 08:09:27;;;;;;;7.40;4.82;;;;;;;18.96;80.18;92953.53;2052339;70;20193;-79
2021/07/18 08:11:54;;;;;;;7.20;4.63;;;;;;;19.15;80.46;92954.84;2052340;70;20513;-79
2021/07/18 08:14:19;;;;;;;5.25;4.60;;;;;;;19.14;78.30;92951.28;2052353;69;20134;-78
2021/07/18 08:16:45;;;;;;;6.40;3.92;;;;;;;19.28;79.14;92960.28;2052211;70;20206;-80
2021/07/18 08:19:11;;;;;;;7.57;3.95;;;;;;;19.42;77.07;92956.44;2052306;70;20147;-79
2021/07/18 08:21:37;;;;;;;5.25;3.95;;;;;;;19.45;78.28;92957.97;2052280;70;20142;-80
2021/07/18 08:24:03;;;;;;;4.72;3.72;;;;;;;19.29;77.35;92956.06;2052372;70;20486;-78
2021/07/18 08:26:28;;;;;;;6.72;4.10;;;;;;;19.49;79.37;92958.84;2052749;70;20134;-79
2021/07/18 08:28:54;;;;;;;7.35;4.90;;;;;;;18.84;83.33;92968.09;2052398;70;20214;-82
2021/07/18 08:31:19;;;;;;;5.95;4.18;;;;;;;19.24;82.49;92970.84;2052195;70;20249;-77
2021/07/18 08:33:45;;;;;;;5.00;4.30;;;;;;;19.46;78.48;92973.72;2052286;69;20242;-79
2021/07/18 08:36:12;;;;;;;9.65;4.20;;;;;;;19.57;81.79;92963.34;2052281;70;20223;-77
2021/07/18 08:38:38;;;;;;;5.60;4.47;;;;;;;19.55;77.02;92969.72;2052303;69;20146;-79
2021/07/18 08:41:04;;;;;;;4.28;3.85;;;;;;;19.55;77.45;92975.44;2052234;70;20145;-78
2021/07/18 08:43:31;;;;;;;4.78;4.03;;;;;;;19.56;75.91;92971.16;2052268;70;20288;-78
2021/07/18 08:45:59;;;;;;;7.20;3.95;;;;;;;19.72;79.56;92971.72;2052273;70;20146;-79
2021/07/18 08:48:24;;;;;;;3.40;3.10;;;;;;;19.71;78.29;92984.53;2052186;70;20227;-78
2021/07/18 08:50:53;;;;;;;3.60;3.22;;;;;;;19.75;77.44;92976.09;2052269;70;20689;-78
2021/07/18 08:53:19;;;;;;;3.85;3.15;;;;;;;19.70;75.91;92985.94;2052154;69;20275;-78
2021/07/18 08:55:45;;;;;;;4.05;3.40;;;;;;;19.73;77.09;92990.31;2052315;69;20186;-77
2021/07/18 08:58:11;;;;;;;5.43;3.75;;;;;;;19.60;74.66;92987.72;2052225;70;20590;-81
2021/07/18 09:00:37;;;;;;;4.80;4.05;;;;;;;19.83;77.16;92998.47;2052164;70;20249;-78
2021/07/18 09:03:03;;;;;;;7.63;4.53;;;;;;;19.89;78.07;92995.09;2052151;70;20266;-78
2021/07/18 09:05:28;;;;;;;7.75;4.40;;;;;;;19.70;79.48;93003.09;2052255;70;20183;-79
2021/07/18 09:07:56;;;;;;;8.80;4.47;;;;;;;19.97;78.25;92998.19;2052337;70;20204;-79
2021/07/18 09:10:29;;;;;;;5.90;4.13;;;;;;;20.06;76.15;92994.91;2052220;70;20155;-79
2021/07/18 09:13:06;;;;;;;6.57;4.15;;;;;;;20.19;75.53;93001.72;2065229;69;20177;-79
2021/07/18 09:15:57;;;;;;;6.50;3.78;;;;;;;20.45;74.64;93004.63;2052219;70;20155;-78
2021/07/18 09:18:26;;;;;;;6.80;4.20;;;;;;;20.57;74.19;92992.81;2051381;70;20157;-79
2021/07/18 09:20:57;;;;;;;4.70;3.85;;;;;;;20.85;77.33;92995.75;2052128;70;20586;-80
2021/07/18 09:23:25;;;;;;;6.00;3.85;;;;;;;20.48;78.04;92993.97;2052183;69;20588;-79
2021/07/18 09:25:52;;;;;;;3.70;3.10;;;;;;;20.73;76.74;92983.97;2052203;70;20142;-80
2021/07/18 09:28:22;;;;;;;5.80;3.30;;;;;;;20.98;76.62;92982.50;2052150;70;20189;-80
2021/07/18 09:30:50;;;;;;;4.30;2.92;;;;;;;21.01;73.46;92975.41;2052184;70;20146;-80
2021/07/18 09:33:22;;;;;;;5.05;2.95;;;;;;;20.91;76.08;92984.47;2051977;70;20134;-80
2021/07/18 09:35:48;;;;;;;5.50;3.10;;;;;;;20.79;76.89;92984.84;2052210;70;20181;-79
2021/07/18 09:38:24;;;;;;;5.22;2.75;;;;;;;20.74;77.64;92989.00;2052105;70;20146;-80
2021/07/18 09:40:59;;;;;;;5.53;2.80;;;;;;;21.02;76.13;92991.19;2052117;69;20545;-80
2021/07/18 09:43:28;;;;;;;4.32;2.95;;;;;;;21.73;75.49;92987.28;2052222;70;20166;-80
2021/07/18 09:45:57;;;;;;;5.43;3.30;;;;;;;22.15;72.39;92981.09;2052116;70;20612;-80
2021/07/18 09:48:38;;;;;;;3.20;2.90;;;;;;;22.56;72.37;92985.56;2052027;70;20203;-79
2021/07/18 09:51:13;;;;;;;3.20;2.90;;;;;;;22.68;72.58;92978.59;2052097;70;20166;-80
2021/07/18 09:53:41;;;;;;;3.88;3.28;;;;;;;23.17;71.77;92979.59;2052009;70;20162;-80
2021/07/18 09:56:16;;;;;;;4.03;3.13;;;;;;;22.08;71.88;92979.47;2052098;70;20134;-79
2021/07/18 09:58:55;;;;;;;4.82;3.20;;;;;;;22.11;74.07;92980.25;2052139;70;20138;-80
2021/07/18 10:01:21;;;;;;;4.60;3.50;;;;;;;22.60;72.46;92984.94;2051923;70;20162;-80
2021/07/18 10:03:57;;;;;;;4.40;3.75;;;;;;;22.12;72.39;92979.59;2051885;69;20150;-79
2021/07/18 10:06:27;;;;;;;3.47;3.17;;;;;;;22.72;71.14;92988.03;2052061;70;20162;-80
2021/07/18 10:08:54;;;;;;;4.93;4.20;;;;;;;22.79;69.59;92981.00;2052199;69;20154;-80
2021/07/18 10:11:23;;;;;;;4.88;4.20;;;;;;;22.88;68.09;92970.41;2052068;70;20621;-80
2021/07/18 10:13:50;;;;;;;5.13;3.17;;;;;;;22.13;71.90;92965.97;2050213;70;20146;-79
2021/07/18 10:16:18;;;;;;;3.92;2.80;;;;;;;22.62;69.88;92979.22;2051179;70;20154;-80
2021/07/18 10:18:46;;;;;;;3.15;2.75;;;;;;;22.14;69.29;92976.06;2051478;69;20218;-79
2021/07/18 10:21:19;;;;;;;4.20;3.33;;;;;;;22.00;70.98;92967.84;2052008;69;20240;-78
2021/07/18 10:23:46;;;;;;;3.65;3.17;;;;;;;21.78;72.07;92965.19;2052028;70;20328;-79
2021/07/18 10:26:13;;;;;;;3.08;2.78;;;;;;;21.68;72.62;92967.81;2052084;69;20149;-80
2021/07/18 10:28:40;;;;;;;2.90;2.60;;;;;;;22.27;71.15;92974.91;2051747;69;20159;-80
2021/07/18 10:31:15;;;;;;;2.95;2.22;;;;;;;22.59;69.67;92972.00;2052027;70;20162;-81
2021/07/18 10:33:44;;;;;;;3.42;2.63;;;;;;;22.89;69.52;92968.25;2051194;69;20519;-80
2021/07/18 10:36:14;;;;;;;3.80;2.78;;;;;;;22.31;70.15;92970.00;2064740;69;20170;-79
2021/07/18 10:38:39;;;;;;;3.10;2.60;;;;;;;22.13;70.87;92968.84;2051959;70;20146;-80
2021/07/18 10:41:05;;;;;;;3.70;2.45;;;;;;;21.60;73.25;92968.34;2051901;70;20255;-79
2021/07/18 10:43:51;;;;;;;3.78;2.45;;;;;;;22.18;71.33;92971.16;2052027;70;20153;-80
2021/07/18 10:46:42;;;;;;;3.00;2.70;;;;;;;22.36;70.49;92958.59;2051931;70;20173;-81
2021/07/18 10:49:15;;;;;;;4.10;2.28;;;;;;;21.87;71.42;92977.56;2051784;70;20146;-80
2021/07/18 10:51:44;;;;;;;3.30;2.17;;;;;;;21.63;72.14;92972.72;2052279;70;20154;-77
2021/07/18 10:54:14;;;;;;;3.03;2.45;;;;;;;21.66;72.56;92970.63;2051956;70;20158;-80
2021/07/18 10:56:57;;;;;;;3.92;2.70;;;;;;;21.42;74.06;92965.03;2051893;69;20583;-79
2021/07/18 10:59:40;;;;;;;2.90;2.40;;;;;;;22.10;72.58;92970.22;2052009;70;20127;-78
2021/07/18 11:02:31;;;;;;;;;;;;;;;22.57;71.51;92964.06;2051999;69;20189;-77
2021/07/18 11:04:58;;;;;;;3.20;2.47;;;;;;;23.14;67.44;92961.59;2051987;70;20225;-77
2021/07/18 11:07:25;;;;;;;2.70;2.22;;;;;;;22.76;70.18;92965.16;2051903;69;20238;-80
2021/07/18 11:09:54;;;;;;;1.98;1.77;;;;;;;23.46;66.09;92970.06;2051657;69;20194;-77
2021/07/18 11:12:45;;;;;;;2.90;1.95;;;;;;;23.99;66.11;92964.44;2051296;70;20146;-76
2021/07/18 11:15:17;;;;;;;2.58;2.03;;;;;;;25.81;60.60;92965.19;2049904;69;20142;-76
2021/07/18 11:17:55;;;;;;;4.45;1.90;;;;;;;25.65;57.86;92978.69;2052455;70;20142;-77
2021/07/18 11:20:38;;;;;;;1.80;1.70;;;;;;;24.38;62.70;92962.16;2052464;70;20586;-76
2021/07/18 11:23:05;;;;;;;3.55;1.80;;;;;;;24.05;63.85;92965.28;2065457;69;20134;-77
2021/07/18 11:25:38;;;;;;;1.95;1.75;;;;;;;25.39;61.16;92962.63;2052487;70;20157;-77
2021/07/18 11:28:04;;;;;;;2.20;2.00;;;;;;;25.89;59.27;92972.44;2052453;69;20131;-77
2021/07/18 11:30:38;;;;;;;2.33;1.95;;;;;;;23.91;64.52;92967.91;2052442;69;20221;-78
2021/07/18 11:33:29;;;;;;;4.22;2.10;;;;;;;24.23;62.87;92961.91;2052336;70;20220;-77
2021/07/18 11:35:56;;;;;;;2.42;2.05;;;;;;;23.71;65.56;92961.88;2046187;70;20202;-79